Time;durP1;ratioP1;P1;durP2;ratioP2;P2;SDS_P1;SDS_P2;PMS_P1;PMS_P2;Temp;Humidity;BMP_temperature;BMP_pressure;BME280_temperature;BME280_humidity;BME280_pressure;Samples;Min_cycle;Max_cycle;Signal;HPM_P1;HPM_P2
2023/05/03 00:00:00;;;;;;;;;;;14.00;98.20;14.20;99903.00;;;;337446;28;83550;-91
2023/05/03 00:00:15;;;;;;;;;;;14.00;98.20;14.20;99906.00;;;;335969;28;98264;-92
2023/05/03 00:00:27;;;;;;;;;;;14.00;98.20;14.10;99903.00;;;;337970;28;82481;-90
2023/05/03 00:00:40;;;;;;;;;;;13.90;98.20;14.10;99907.00;;;;340262;28;96592;-91
2023/05/03 00:00:51;;;;;;;;;;;13.90;98.20;14.20;99901.00;;;;339724;28;82468;-92
2023/05/03 00:01:10;;;;;;;;;;;13.90;98.20;14.20;99904.00;;;;338843;28;96311;-92
2023/05/03 00:01:22;;;;;;;;;;;13.90;98.20;14.20;99904.00;;;;338321;28;82538;-91
2023/05/03 00:01:34;;;;;;;;;;;13.90;98.30;14.20;99905.00;;;;337358;28;95834;-92
2023/05/03 00:01:46;;;;;;;;;;;13.90;98.30;14.20;99892.00;;;;338176;28;82377;-92
2023/05/03 00:02:00;;;;;;;;;;;13.90;98.30;14.10;99903.00;;;;336222;28;96988;-92
2023/05/03 00:02:13;;;;;;;;;;;13.90;98.30;14.20;99897.00;;;;338294;28;82255;-92
2023/05/03 00:02:24;;;;;;;;;;;13.90;98.30;14.20;99899.00;;;;336121;28;96644;-91
2023/05/03 00:02:38;;;;;;;;;;;13.90;98.40;14.10;99900.00;;;;336918;28;83416;-92
2023/05/03 00:02:52;;;;;;;;;;;13.90;98.40;14.10;99902.00;;;;340252;28;96359;-91
2023/05/03 00:03:05;;;;;;;;;;;13.90;98.40;14.10;99895.00;;;;339404;28;83625;-91
2023/05/03 00:03:21;;;;;;;;;;;13.80;98.30;14.00;99897.00;;;;336139;28;96614;-92
2023/05/03 00:03:33;;;;;;;;;;;13.80;98.40;14.20;99899.00;;;;342131;28;83445;-91
2023/05/03 00:03:46;;;;;;;;;;;13.80;98.30;14.10;99895.00;;;;340104;28;95593;-91
2023/05/03 00:03:57;;;;;;;;;;;13.80;98.30;14.10;99898.00;;;;336883;28;82388;-91
2023/05/03 00:04:09;;;;;;;;;;;13.90;98.40;14.20;99903.00;;;;337474;28;96116;-90
2023/05/03 00:04:22;;;;;;;;;;;13.80;98.40;14.20;99891.00;;;;338203;28;83473;-91
2023/05/03 00:04:34;;;;;;;;;;;13.80;98.40;14.10;99902.00;;;;333546;29;97512;-91
2023/05/03 00:04:47;;;;;;;;;;;13.90;98.40;14.10;99900.00;;;;339586;28;82543;-91
2023/05/03 00:04:59;;;;;;;;;;;13.80;98.30;14.10;99898.00;;;;338737;28;95983;-90
2023/05/03 00:05:13;;;;;;;;;;;13.80;98.30;14.20;99894.00;;;;335758;29;82579;-90
2023/05/03 00:05:25;;;;;;;;;;;13.90;98.40;14.10;99896.00;;;;338762;28;95418;-91
2023/05/03 00:05:38;;;;;;;;;;;13.80;98.40;14.10;99901.00;;;;339610;28;83402;-91
2023/05/03 00:05:50;;;;;;;;;;;13.80;98.30;14.00;99899.00;;;;338935;28;95225;-91
2023/05/03 00:06:10;;;;;;;;;;;13.80;98.30;14.10;99901.00;;;;340920;28;83369;-92
2023/05/03 00:06:22;;;;;;;;;;;13.80;98.30;14.10;99895.00;;;;336213;28;96494;-92
2023/05/03 00:06:34;;;;;;;;;;;13.90;98.40;14.20;99894.00;;;;336900;28;82318;-92
2023/05/03 00:06:46;;;;;;;;;;;13.80;98.40;14.10;99900.00;;;;339945;28;97716;-91
2023/05/03 00:06:58;;;;;;;;;;;13.80;98.40;14.00;99895.00;;;;337862;28;82554;-91
2023/05/03 00:07:10;;;;;;;;;;;13.80;98.40;14.00;99909.00;;;;340055;28;96385;-91
2023/05/03 00:07:22;;;;;;;;;;;13.80;98.40;14.00;99898.00;;;;339640;28;82483;-92
2023/05/03 00:07:34;;;;;;;;;;;13.80;98.50;14.00;99895.00;;;;337382;28;95634;-91
2023/05/03 00:07:46;;;;;;;;;;;13.80;98.50;14.10;99898.00;;;;339450;28;83265;-92
2023/05/03 00:07:59;;;;;;;;;;;13.80;98.50;14.10;99901.00;;;;338680;28;96420;-91
2023/05/03 00:08:11;;;;;;;;;;;13.80;98.50;14.10;99899.00;;;;335452;29;83362;-91
2023/05/03 00:08:23;;;;;;;;;;;13.80;98.50;14.10;99903.00;;;;337433;28;96589;-93
2023/05/03 00:08:34;;;;;;;;;;;13.80;98.40;14.10;99902.00;;;;338125;28;83439;-91
2023/05/03 00:08:47;;;;;;;;;;;13.80;98.40;14.10;99902.00;;;;340006;28;97715;-90
2023/05/03 00:08:58;;;;;;;;;;;13.80;98.50;14.10;99895.00;;;;340765;28;83663;-92
2023/05/03 00:09:11;;;;;;;;;;;13.80;98.50;14.10;99898.00;;;;334816;29;95651;-91
2023/05/03 00:09:23;;;;;;;;;;;13.80;98.50;14.20;99894.00;;;;339440;28;83410;-90
2023/05/03 00:09:35;;;;;;;;;;;13.80;98.50;14.10;99893.00;;;;339958;28;95956;-91
2023/05/03 00:09:48;;;;;;;;;;;13.80;98.40;14.10;99900.00;;;;338370;28;82468;-92
2023/05/03 00:10:00;;;;;;;;;;;13.80;98.40;14.10;99896.00;;;;338764;28;96453;-91
2023/05/03 00:10:14;;;;;;;;;;;13.80;98.40;14.10;99898.00;;;;339511;28;82227;-91
2023/05/03 00:10:26;;;;;;;;;;;13.80;98.40;14.10;99902.00;;;;338700;28;95444;-91
2023/05/03 00:10:38;;;;;;;;;;;13.80;98.40;14.20;99900.00;;;;340868;28;83474;-91
2023/05/03 00:10:50;;;;;;;;;;;13.80;98.40;14.20;99897.00;;;;338705;28;97443;-92
2023/05/03 00:11:02;;;;;;;;;;;13.80;98.40;14.20;99902.00;;;;336845;28;83510;-91
2023/05/03 00:11:14;;;;;;;;;;;13.80;98.50;14.10;99894.00;;;;337501;28;95982;-90
2023/05/03 00:11:26;;;;;;;;;;;13.80;98.50;14.00;99896.00;;;;339475;28;83419;-92
2023/05/03 00:11:38;;;;;;;;;;;13.80;98.50;14.00;99895.00;;;;336056;28;95048;-91
2023/05/03 00:11:50;;;;;;;;;;;13.80;98.50;14.00;99903.00;;;;340819;28;83433;-90
2023/05/03 00:12:03;;;;;;;;;;;13.80;98.50;14.10;99895.00;;;;337311;28;94461;-92
2023/05/03 00:12:15;;;;;;;;;;;13.80;98.50;14.10;99895.00;;;;335600;28;83444;-91
2023/05/03 00:12:27;;;;;;;;;;;13.80;98.50;14.00;99898.00;;;;338759;28;96842;-91
2023/05/03 00:12:39;;;;;;;;;;;13.80;98.50;14.00;99899.00;;;;340870;28;83541;-90
2023/05/03 00:12:51;;;;;;;;;;;13.70;98.50;14.00;99900.00;;;;339974;28;95966;-91
2023/05/03 00:13:03;;;;;;;;;;;13.70;98.50;14.00;99893.00;;;;340829;28;83352;-91
2023/05/03 00:13:15;;;;;;;;;;;13.70;98.50;13.90;99903.00;;;;337470;28;96841;-91
2023/05/03 00:13:27;;;;;;;;;;;13.80;98.50;14.00;99899.00;;;;340553;28;82484;-91
2023/05/03 00:13:39;;;;;;;;;;;13.80;98.50;14.00;99896.00;;;;337514;28;92719;-91
2023/05/03 00:13:51;;;;;;;;;;;13.80;98.50;14.00;99896.00;;;;336779;28;83615;-91
2023/05/03 00:14:03;;;;;;;;;;;13.70;98.50;14.10;99895.00;;;;337331;28;95298;-91
2023/05/03 00:14:15;;;;;;;;;;;13.70;98.50;14.10;99890.00;;;;340592;28;83532;-90
2023/05/03 00:14:27;;;;;;;;;;;13.80;98.50;14.10;99894.00;;;;337494;28;94923;-91
2023/05/03 00:14:39;;;;;;;;;;;13.80;98.60;14.10;99893.00;;;;336867;28;83504;-91
2023/05/03 00:14:51;;;;;;;;;;;13.70;98.50;14.00;99893.00;;;;338694;28;96283;-91
2023/05/03 00:15:04;;;;;;;;;;;13.80;98.60;13.90;99896.00;;;;338141;28;84464;-91
2023/05/03 00:15:16;;;;;;;;;;;13.70;98.60;13.80;99896.00;;;;334872;29;96907;-90
2023/05/03 00:15:28;;;;;;;;;;;13.70;98.60;13.90;99891.00;;;;339596;28;83409;-90
2023/05/03 00:15:39;;;;;;;;;;;13.70;98.60;14.00;99901.00;;;;336012;28;97235;-90
2023/05/03 00:15:51;;;;;;;;;;;13.70;98.60;14.00;99896.00;;;;338135;28;83398;-90
2023/05/03 00:16:03;;;;;;;;;;;13.70;98.60;14.00;99895.00;;;;341325;28;96026;-89
2023/05/03 00:16:15;;;;;;;;;;;13.70;98.50;14.00;99898.00;;;;338218;28;82529;-91
2023/05/03 00:16:27;;;;;;;;;;;13.70;98.50;14.00;99889.00;;;;337467;28;94708;-92
2023/05/03 00:16:40;;;;;;;;;;;13.70;98.60;14.00;99892.00;;;;339643;28;82407;-92
2023/05/03 00:16:51;;;;;;;;;;;13.70;98.60;14.00;99892.00;;;;341306;28;97429;-90
2023/05/03 00:17:03;;;;;;;;;;;13.70;98.60;14.00;99896.00;;;;339348;28;83550;-91
2023/05/03 00:17:15;;;;;;;;;;;13.70;98.60;14.00;99894.00;;;;338779;28;96368;-90
2023/05/03 00:17:27;;;;;;;;;;;13.70;98.60;14.00;99891.00;;;;342077;28;83595;-91
2023/05/03 00:17:39;;;;;;;;;;;13.70;98.60;14.00;99887.00;;;;336052;28;96566;-91
2023/05/03 00:17:51;;;;;;;;;;;13.70;98.60;14.10;99896.00;;;;338204;28;83599;-90
2023/05/03 00:18:03;;;;;;;;;;;13.70;98.60;14.10;99896.00;;;;338766;28;96539;-89
2023/05/03 00:18:15;;;;;;;;;;;13.70;98.60;14.10;99886.00;;;;338181;28;83468;-91
2023/05/03 00:18:29;;;;;;;;;;;13.70;98.50;14.10;99897.00;;;;338843;28;96847;-91
2023/05/03 00:18:41;;;;;;;;;;;13.70;98.50;14.00;99896.00;;;;339387;28;83280;-91
2023/05/03 00:18:53;;;;;;;;;;;13.70;98.50;14.00;99899.00;;;;338703;28;96485;-91
2023/05/03 00:19:05;;;;;;;;;;;13.70;98.50;14.00;99890.00;;;;340795;28;82579;-90
2023/05/03 00:19:18;;;;;;;;;;;13.70;98.40;14.00;99893.00;;;;339062;28;94618;-92
2023/05/03 00:19:42;;;;;;;;;;;13.70;98.50;13.90;99893.00;;;;340075;28;82543;-90
2023/05/03 00:19:55;;;;;;;;;;;13.70;98.60;14.00;99892.00;;;;341499;28;96665;-91
2023/05/03 00:20:07;;;;;;;;;;;13.70;98.60;14.00;99889.00;;;;340598;28;82509;-91
2023/05/03 00:20:19;;;;;;;;;;;13.70;98.50;14.00;99888.00;;;;335985;28;96882;-91
2023/05/03 00:20:31;;;;;;;;;;;13.70;98.50;14.10;99887.00;;;;336845;28;83116;-92
2023/05/03 00:20:43;;;;;;;;;;;13.70;98.60;14.00;99889.00;;;;337335;28;96867;-91
2023/05/03 00:20:55;;;;;;;;;;;13.70;98.70;14.00;99893.00;;;;340636;28;82508;-92
2023/05/03 00:21:07;;;;;;;;;;;13.70;98.70;14.00;99889.00;;;;341187;28;96385;-91
2023/05/03 00:21:19;;;;;;;;;;;13.70;98.70;13.90;99884.00;;;;339428;28;83369;-91
2023/05/03 00:21:31;;;;;;;;;;;13.70;98.60;13.90;99889.00;;;;341284;28;95469;-91
2023/05/03 00:21:43;;;;;;;;;;;13.70;98.60;13.90;99902.00;;;;340660;28;83263;-91
2023/05/03 00:21:55;;;;;;;;;;;13.70;98.70;14.00;99893.00;;;;339860;28;95936;-91
2023/05/03 00:22:07;;;;;;;;;;;13.70;98.70;14.00;99891.00;;;;343292;28;83322;-92
2023/05/03 00:22:19;;;;;;;;;;;13.70;98.60;14.10;99895.00;;;;341299;28;96426;-92
2023/05/03 00:22:31;;;;;;;;;;;13.70;98.60;14.00;99895.00;;;;342259;28;82505;-91
2023/05/03 00:22:43;;;;;;;;;;;13.70;98.60;14.00;99894.00;;;;341277;28;95597;-91
2023/05/03 00:22:55;;;;;;;;;;;13.70;98.70;14.00;99895.00;;;;338014;28;83394;-90
2023/05/03 00:23:07;;;;;;;;;;;13.70;98.60;14.00;99890.00;;;;339706;28;97337;-91
2023/05/03 00:23:20;;;;;;;;;;;13.70;98.60;13.90;99899.00;;;;342097;28;82463;-91
2023/05/03 00:23:32;;;;;;;;;;;13.70;98.60;14.00;99897.00;;;;341382;28;95613;-91
2023/05/03 00:23:44;;;;;;;;;;;13.70;98.60;13.90;99898.00;;;;339396;28;83466;-90
2023/05/03 00:23:56;;;;;;;;;;;13.70;98.60;14.00;99895.00;;;;337337;28;96602;-91
2023/05/03 00:24:08;;;;;;;;;;;13.70;98.60;14.00;99896.00;;;;339383;28;82363;-91
2023/05/03 00:24:19;;;;;;;;;;;13.70;98.60;13.90;99894.00;;;;339991;28;96343;-90
2023/05/03 00:24:31;;;;;;;;;;;13.70;98.60;14.00;99890.00;;;;342154;28;83417;-90
2023/05/03 00:24:43;;;;;;;;;;;13.70;98.60;13.90;99897.00;;;;338553;28;94503;-91
2023/05/03 00:24:55;;;;;;;;;;;13.70;98.60;14.00;99893.00;;;;339434;28;83441;-92
2023/05/03 00:25:08;;;;;;;;;;;13.70;98.60;14.00;99896.00;;;;341333;28;97554;-89
2023/05/03 00:25:20;;;;;;;;;;;13.60;98.60;14.00;99887.00;;;;342276;28;82449;-91
2023/05/03 00:25:32;;;;;;;;;;;13.70;98.60;14.00;99894.00;;;;338770;28;96385;-91
2023/05/03 00:25:44;;;;;;;;;;;13.70;98.60;14.00;99886.00;;;;342109;28;82510;-90
2023/05/03 00:25:57;;;;;;;;;;;13.70;98.60;14.10;99888.00;;;;341324;28;95531;-90
2023/05/03 00:26:09;;;;;;;;;;;13.70;98.70;14.10;99894.00;;;;339584;28;82378;-91
2023/05/03 00:26:21;;;;;;;;;;;13.70;98.60;14.10;99891.00;;;;340014;28;96505;-91
2023/05/03 00:26:33;;;;;;;;;;;13.70;98.60;14.10;99886.00;;;;338112;28;83410;-92
2023/05/03 00:26:45;;;;;;;;;;;13.70;98.60;14.10;99890.00;;;;337398;28;96399;-91
2023/05/03 00:26:56;;;;;;;;;;;13.70;98.60;14.10;99894.00;;;;341860;28;83592;-92
2023/05/03 00:27:08;;;;;;;;;;;13.70;98.70;14.00;99889.00;;;;341073;28;95122;-90
2023/05/03 00:27:20;;;;;;;;;;;13.70;98.60;14.00;99893.00;;;;339524;28;83251;-91
2023/05/03 00:27:32;;;;;;;;;;;13.70;98.60;14.00;99890.00;;;;338810;28;95110;-92
2023/05/03 00:27:44;;;;;;;;;;;13.70;98.60;14.00;99891.00;;;;339350;28;82543;-91
2023/05/03 00:27:56;;;;;;;;;;;13.70;98.60;14.00;99897.00;;;;339966;28;96318;-91
2023/05/03 00:28:08;;;;;;;;;;;13.70;98.60;14.10;99894.00;;;;342065;28;82414;-92
2023/05/03 00:28:20;;;;;;;;;;;13.70;98.60;14.00;99894.00;;;;338670;28;95574;-91
2023/05/03 00:28:32;;;;;;;;;;;13.70;98.60;14.10;99888.00;;;;342053;28;83397;-92
2023/05/03 00:28:44;;;;;;;;;;;13.70;98.60;14.10;99876.00;;;;342899;28;95455;-91
2023/05/03 00:28:55;;;;;;;;;;;13.70;98.60;14.00;99893.00;;;;340827;28;83404;-90
2023/05/03 00:29:07;;;;;;;;;;;13.70;98.60;14.10;99894.00;;;;341293;28;97239;-89
2023/05/03 00:29:21;;;;;;;;;;;13.70;98.60;14.00;99901.00;;;;339533;28;82493;-91
2023/05/03 00:29:33;;;;;;;;;;;13.70;98.60;14.10;99886.00;;;;339977;28;96718;-91
2023/05/03 00:29:45;;;;;;;;;;;13.70;98.70;14.00;99890.00;;;;340722;28;83498;-90
2023/05/03 00:29:57;;;;;;;;;;;13.70;98.60;14.00;99883.00;;;;340006;28;94669;-92
2023/05/03 00:30:09;;;;;;;;;;;13.70;98.60;14.00;99896.00;;;;342133;28;83324;-90
2023/05/03 00:30:21;;;;;;;;;;;13.70;98.60;14.00;99890.00;;;;340118;28;96022;-91
2023/05/03 00:30:33;;;;;;;;;;;13.70;98.60;14.00;99893.00;;;;338155;28;83466;-90
2023/05/03 00:30:45;;;;;;;;;;;13.70;98.60;14.00;99902.00;;;;337434;28;96149;-91
2023/05/03 00:31:04;;;;;;;;;;;13.70;98.60;14.00;99894.00;;;;340623;28;83587;-91
2023/05/03 00:31:17;;;;;;;;;;;13.70;98.60;14.00;99892.00;;;;338793;28;97698;-91
2023/05/03 00:31:28;;;;;;;;;;;13.70;98.70;14.00;99893.00;;;;340930;28;82507;-91
2023/05/03 00:31:42;;;;;;;;;;;13.70;98.60;14.10;99885.00;;;;338898;28;95197;-91
2023/05/03 00:31:54;;;;;;;;;;;13.70;98.60;14.10;99898.00;;;;339684;28;82605;-91
2023/05/03 00:32:07;;;;;;;;;;;13.70;98.60;14.10;99891.00;;;;341642;28;94037;-91
2023/05/03 00:32:20;;;;;;;;;;;13.70;98.60;14.00;99889.00;;;;339742;28;83528;-90
2023/05/03 00:32:32;;;;;;;;;;;13.70;98.70;14.10;99891.00;;;;340334;28;96827;-92
2023/05/03 00:32:44;;;;;;;;;;;13.70;98.70;14.00;99890.00;;;;339817;28;82436;-92
2023/05/03 00:32:56;;;;;;;;;;;13.70;98.60;14.00;99889.00;;;;338943;28;95460;-91
2023/05/03 00:33:08;;;;;;;;;;;13.70;98.60;14.10;99891.00;;;;341057;28;83435;-91
2023/05/03 00:33:20;;;;;;;;;;;13.70;98.60;13.90;99891.00;;;;341688;28;95866;-91
2023/05/03 00:33:32;;;;;;;;;;;13.70;98.70;14.00;99892.00;;;;341037;28;83276;-91
2023/05/03 00:33:44;;;;;;;;;;;13.70;98.70;14.00;99890.00;;;;337600;28;96586;-90
2023/05/03 00:33:56;;;;;;;;;;;13.70;98.70;14.10;99885.00;;;;342513;28;83476;-91
2023/05/03 00:34:08;;;;;;;;;;;13.70;98.70;14.10;99890.00;;;;341631;28;95638;-91
2023/05/03 00:34:20;;;;;;;;;;;13.70;98.70;14.10;99888.00;;;;338545;28;82533;-90
2023/05/03 00:34:32;;;;;;;;;;;13.70;98.60;14.10;99885.00;;;;339262;28;95674;-92
2023/05/03 00:34:44;;;;;;;;;;;13.70;98.60;14.00;99891.00;;;;342580;28;82530;-92
2023/05/03 00:34:56;;;;;;;;;;;13.70;98.60;13.90;99885.00;;;;339028;28;95069;-90
2023/05/03 00:35:08;;;;;;;;;;;13.70;98.60;13.80;99883.00;;;;338596;28;83387;-90
2023/05/03 00:35:21;;;;;;;;;;;13.70;98.60;13.90;99889.00;;;;339188;28;96706;-91
2023/05/03 00:35:33;;;;;;;;;;;13.70;98.60;14.00;99881.00;;;;340111;28;82492;-90
2023/05/03 00:35:45;;;;;;;;;;;13.70;98.60;14.00;99887.00;;;;337886;28;96721;-91
2023/05/03 00:35:57;;;;;;;;;;;13.70;98.70;14.10;99890.00;;;;340104;28;82576;-91
2023/05/03 00:36:10;;;;;;;;;;;13.70;98.60;14.10;99897.00;;;;339266;28;95667;-91
2023/05/03 00:36:21;;;;;;;;;;;13.70;98.60;14.00;99888.00;;;;339937;28;82581;-91
2023/05/03 00:36:33;;;;;;;;;;;13.70;98.60;14.00;99886.00;;;;339216;28;95377;-92
2023/05/03 00:36:47;;;;;;;;;;;13.70;98.60;14.00;99889.00;;;;338938;28;82372;-92
2023/05/03 00:36:59;;;;;;;;;;;13.70;98.70;13.90;99891.00;;;;338865;28;94350;-91
2023/05/03 00:37:11;;;;;;;;;;;13.70;98.60;13.90;99876.00;;;;340962;28;82563;-89
2023/05/03 00:37:23;;;;;;;;;;;13.70;98.60;13.90;99891.00;;;;340213;28;96431;-90
2023/05/03 00:37:35;;;;;;;;;;;13.70;98.60;14.00;99887.00;;;;342451;28;82520;-90
2023/05/03 00:37:47;;;;;;;;;;;13.70;98.60;14.00;99882.00;;;;341785;28;95327;-89
2023/05/03 00:37:59;;;;;;;;;;;13.70;98.60;14.00;99884.00;;;;342490;28;82467;-92
2023/05/03 00:38:13;;;;;;;;;;;13.70;98.60;14.00;99881.00;;;;341698;28;95312;-91
2023/05/03 00:38:24;;;;;;;;;;;13.70;98.90;13.90;99882.00;;;;343513;28;82592;-92
2023/05/03 00:38:37;;;;;;;;;;;13.70;98.60;13.90;99880.00;;;;341642;28;95381;-90
2023/05/03 00:38:48;;;;;;;;;;;13.70;98.60;14.00;99879.00;;;;339402;28;82483;-90
2023/05/03 00:39:00;;;;;;;;;;;13.70;98.70;14.00;99892.00;;;;337122;28;95276;-92
2023/05/03 00:39:13;;;;;;;;;;;13.70;98.60;14.00;99886.00;;;;341877;28;82898;-92
2023/05/03 00:39:25;;;;;;;;;;;13.70;98.60;14.00;99895.00;;;;342371;28;96446;-91
2023/05/03 00:39:37;;;;;;;;;;;13.70;98.60;14.00;99884.00;;;;340299;28;82557;-91
2023/05/03 00:39:49;;;;;;;;;;;13.70;98.60;13.90;99885.00;;;;342353;28;95403;-91
2023/05/03 00:40:01;;;;;;;;;;;13.70;98.70;13.90;99885.00;;;;342100;28;83447;-90
2023/05/03 00:40:17;;;;;;;;;;;13.70;98.60;13.90;99884.00;;;;340788;28;95776;-91
2023/05/03 00:40:29;;;;;;;;;;;13.70;98.60;14.00;99873.00;;;;341797;28;82471;-92
2023/05/03 00:40:41;;;;;;;;;;;13.70;98.70;13.90;99881.00;;;;339585;28;95075;-91
2023/05/03 00:40:53;;;;;;;;;;;13.70;98.70;13.90;99881.00;;;;337534;28;83535;-90
2023/05/03 00:41:06;;;;;;;;;;;13.70;98.70;13.90;99871.00;;;;341877;28;95611;-91
2023/05/03 00:41:18;;;;;;;;;;;13.60;98.70;13.80;99879.00;;;;341616;28;82452;-91
2023/05/03 00:41:30;;;;;;;;;;;13.60;98.70;13.90;99880.00;;;;335753;29;95930;-91
2023/05/03 00:41:41;;;;;;;;;;;13.60;98.70;14.00;99871.00;;;;340465;28;82461;-91
2023/05/03 00:41:56;;;;;;;;;;;13.60;98.80;13.80;99876.00;;;;342195;28;95371;-90
2023/05/03 00:42:08;;;;;;;;;;;13.60;98.80;13.80;99875.00;;;;341744;28;82466;-90
2023/05/03 00:42:20;;;;;;;;;;;13.60;98.80;13.80;99877.00;;;;340641;28;95611;-91
2023/05/03 00:42:34;;;;;;;;;;;13.60;98.70;13.90;99883.00;;;;340426;28;82403;-91
2023/05/03 00:42:46;;;;;;;;;;;13.60;98.80;13.90;99868.00;;;;341117;28;95668;-91
2023/05/03 00:42:58;;;;;;;;;;;13.60;98.80;13.90;99876.00;;;;341689;28;82548;-91
2023/05/03 00:43:12;;;;;;;;;;;13.60;98.80;13.90;99886.00;;;;341190;28;95529;-91
2023/05/03 00:43:24;;;;;;;;;;;13.60;98.90;13.80;99875.00;;;;340210;28;83352;-91
2023/05/03 00:43:36;;;;;;;;;;;13.60;98.90;13.80;99877.00;;;;341407;28;96552;-91
2023/05/03 00:43:48;;;;;;;;;;;13.60;98.90;13.90;99877.00;;;;340828;28;82516;-91
2023/05/03 00:44:00;;;;;;;;;;;13.60;98.90;13.80;99878.00;;;;337531;28;96219;-91
2023/05/03 00:44:13;;;;;;;;;;;13.60;98.80;13.80;99875.00;;;;342171;28;82453;-92
2023/05/03 00:44:25;;;;;;;;;;;13.60;98.90;13.90;99873.00;;;;339748;28;95426;-92
2023/05/03 00:44:37;;;;;;;;;;;13.60;98.90;13.80;99874.00;;;;338158;28;82566;-91
2023/05/03 00:44:49;;;;;;;;;;;13.60;98.90;13.80;99867.00;;;;341278;28;94112;-91
2023/05/03 00:45:03;;;;;;;;;;;13.60;98.90;13.90;99859.00;;;;343462;28;82518;-91
2023/05/03 00:45:15;;;;;;;;;;;13.60;98.90;13.80;99868.00;;;;339976;28;96353;-90
2023/05/03 00:45:31;;;;;;;;;;;13.60;99.00;13.90;99876.00;;;;340833;28;83234;-91
2023/05/03 00:45:45;;;;;;;;;;;13.60;99.00;14.00;99870.00;;;;342624;28;97384;-91
2023/05/03 00:46:02;;;;;;;;;;;13.60;99.00;13.80;99882.00;;;;342145;28;82493;-91
2023/05/03 00:46:26;;;;;;;;;;;13.60;99.30;13.90;99877.00;;;;338684;28;95497;-91
2023/05/03 00:46:38;;;;;;;;;;;13.60;99.20;13.90;99877.00;;;;336736;28;82498;-91
2023/05/03 00:46:50;;;;;;;;;;;13.60;99.20;13.90;99869.00;;;;339959;28;96356;-91
2023/05/03 00:47:03;;;;;;;;;;;13.60;99.10;13.80;99873.00;;;;341097;28;83496;-90
2023/05/03 00:47:15;;;;;;;;;;;13.60;99.10;13.90;99874.00;;;;340279;28;95938;-91
2023/05/03 00:47:27;;;;;;;;;;;13.60;99.00;13.90;99877.00;;;;340986;28;83336;-91
2023/05/03 00:47:39;;;;;;;;;;;13.60;99.00;13.90;99875.00;;;;340240;28;96055;-92
2023/05/03 00:47:51;;;;;;;;;;;13.50;99.00;13.90;99879.00;;;;340991;28;83558;-91
2023/05/03 00:48:03;;;;;;;;;;;13.60;99.00;13.90;99869.00;;;;340045;28;97804;-91
2023/05/03 00:48:17;;;;;;;;;;;13.60;99.00;13.80;99865.00;;;;338155;28;82612;-91
2023/05/03 00:48:29;;;;;;;;;;;13.60;99.00;13.80;99871.00;;;;337511;28;94949;-90
2023/05/03 00:48:41;;;;;;;;;;;13.60;99.00;13.90;99884.00;;;;338571;28;82427;-91
2023/05/03 00:48:53;;;;;;;;;;;13.60;99.00;13.90;99884.00;;;;336216;28;96666;-92
2023/05/03 00:49:05;;;;;;;;;;;13.60;99.00;13.90;99873.00;;;;342270;28;82490;-91
2023/05/03 00:49:17;;;;;;;;;;;13.60;99.00;13.90;99882.00;;;;341802;28;95453;-92
2023/05/03 00:49:30;;;;;;;;;;;13.60;99.00;13.90;99877.00;;;;342383;28;83377;-92
2023/05/03 00:49:42;;;;;;;;;;;13.60;99.00;13.90;99875.00;;;;341734;28;94493;-92
2023/05/03 00:49:53;;;;;;;;;;;13.60;99.00;13.90;99880.00;;;;339931;28;83482;-91
2023/05/03 00:50:07;;;;;;;;;;;13.60;98.90;13.90;99867.00;;;;337316;28;95610;-90
2023/05/03 00:50:19;;;;;;;;;;;13.60;98.90;13.90;99869.00;;;;342393;28;82607;-90
2023/05/03 00:50:31;;;;;;;;;;;13.60;98.90;13.80;99866.00;;;;340152;28;94989;-91
2023/05/03 00:50:44;;;;;;;;;;;13.60;99.00;13.90;99866.00;;;;339752;28;82451;-91
2023/05/03 00:50:57;;;;;;;;;;;13.60;98.90;13.90;99871.00;;;;340072;28;95724;-91
2023/05/03 00:51:09;;;;;;;;;;;13.60;99.00;13.90;99874.00;;;;342038;28;83558;-90
2023/05/03 00:51:20;;;;;;;;;;;13.60;99.00;13.90;99878.00;;;;340106;28;96352;-91
2023/05/03 00:51:32;;;;;;;;;;;13.60;99.00;14.00;99870.00;;;;338176;28;83518;-91
2023/05/03 00:51:44;;;;;;;;;;;13.60;99.00;13.90;99867.00;;;;338843;28;95837;-90
2023/05/03 00:51:58;;;;;;;;;;;13.60;99.00;13.80;99869.00;;;;341061;28;82493;-91
2023/05/03 00:52:10;;;;;;;;;;;13.60;98.90;13.90;99865.00;;;;338539;28;96588;-90
2023/05/03 00:52:22;;;;;;;;;;;13.60;99.00;13.90;99865.00;;;;342511;28;86308;-91
2023/05/03 00:52:34;;;;;;;;;;;13.60;99.00;13.90;99861.00;;;;340097;28;96411;-92
2023/05/03 00:52:46;;;;;;;;;;;13.60;99.00;14.00;99857.00;;;;341859;28;82562;-91
2023/05/03 00:52:57;;;;;;;;;;;13.60;99.00;14.00;99859.00;;;;340266;28;96425;-92
2023/05/03 00:53:10;;;;;;;;;;;13.60;99.00;13.90;99864.00;;;;339524;28;83191;-90
2023/05/03 00:53:21;;;;;;;;;;;13.60;99.00;14.00;99861.00;;;;338783;28;94525;-91
2023/05/03 00:53:34;;;;;;;;;;;13.60;99.00;13.90;99868.00;;;;339803;28;82616;-92
2023/05/03 00:53:45;;;;;;;;;;;13.60;98.90;14.00;99863.00;;;;336148;28;97038;-91
2023/05/03 00:53:57;;;;;;;;;;;13.60;98.90;13.90;99860.00;;;;339609;28;83473;-91
2023/05/03 00:54:10;;;;;;;;;;;13.60;98.90;13.90;99867.00;;;;341371;28;96769;-91
2023/05/03 00:54:22;;;;;;;;;;;13.60;98.90;13.90;99866.00;;;;339753;28;83405;-92
2023/05/03 00:54:34;;;;;;;;;;;13.60;98.90;13.90;99857.00;;;;341472;28;96823;-92
2023/05/03 00:54:46;;;;;;;;;;;13.60;98.90;13.90;99867.00;;;;339562;28;83416;-90
2023/05/03 00:54:58;;;;;;;;;;;13.60;98.90;13.90;99867.00;;;;337345;28;96846;-90
2023/05/03 00:55:10;;;;;;;;;;;13.60;98.90;13.90;99875.00;;;;342308;28;83386;-90
2023/05/03 00:55:22;;;;;;;;;;;13.60;99.00;13.90;99869.00;;;;338771;28;95349;-89
2023/05/03 00:55:34;;;;;;;;;;;13.60;99.00;13.90;99865.00;;;;340787;28;83391;-91
2023/05/03 00:55:46;;;;;;;;;;;13.60;99.00;13.90;99868.00;;;;342804;28;96488;-90
2023/05/03 00:55:58;;;;;;;;;;;13.60;99.00;13.90;99867.00;;;;341051;28;83341;-91
2023/05/03 00:56:10;;;;;;;;;;;13.60;99.00;13.90;99860.00;;;;338891;28;96279;-91
2023/05/03 00:56:23;;;;;;;;;;;13.60;99.00;13.90;99868.00;;;;342030;28;83511;-89
2023/05/03 00:56:35;;;;;;;;;;;13.60;99.00;13.90;99864.00;;;;341441;28;95279;-90
2023/05/03 00:57:01;;;;;;;;;;;13.60;99.00;13.80;99866.00;;;;340996;28;82579;-91
2023/05/03 00:57:14;;;;;;;;;;;13.60;99.00;13.80;99863.00;;;;341372;28;94816;-90
2023/05/03 00:57:26;;;;;;;;;;;13.60;99.00;13.80;99864.00;;;;342126;28;83451;-90
2023/05/03 00:57:38;;;;;;;;;;;13.60;99.00;13.90;99859.00;;;;341225;28;96603;-90
2023/05/03 00:57:50;;;;;;;;;;;13.60;99.00;13.80;99867.00;;;;342381;28;83280;-91
2023/05/03 00:58:02;;;;;;;;;;;13.60;99.00;13.80;99870.00;;;;340205;28;95383;-91
2023/05/03 00:58:14;;;;;;;;;;;13.60;99.00;13.80;99865.00;;;;339442;28;83251;-91
2023/05/03 00:58:26;;;;;;;;;;;13.50;98.90;13.80;99864.00;;;;342749;28;96339;-91
2023/05/03 00:58:39;;;;;;;;;;;13.60;99.00;13.80;99864.00;;;;342391;28;83390;-91
2023/05/03 00:58:51;;;;;;;;;;;13.50;99.00;13.90;99856.00;;;;341882;28;94816;-92
2023/05/03 00:59:04;;;;;;;;;;;13.50;98.90;13.90;99862.00;;;;342580;28;82402;-91
2023/05/03 00:59:17;;;;;;;;;;;13.60;99.00;13.80;99855.00;;;;338809;28;96945;-90
2023/05/03 00:59:29;;;;;;;;;;;13.50;98.90;13.90;99856.00;;;;338131;28;83340;-90
2023/05/03 00:59:41;;;;;;;;;;;13.60;98.90;13.80;99854.00;;;;340078;28;97949;-91
2023/05/03 00:59:53;;;;;;;;;;;13.60;99.00;13.90;99864.00;;;;340815;28;83401;-90
2023/05/03 01:00:09;;;;;;;;;;;13.50;99.00;13.80;99858.00;;;;338855;28;94934;-91
2023/05/03 01:00:22;;;;;;;;;;;13.60;99.00;13.80;99864.00;;;;343588;28;82659;-91
2023/05/03 01:00:34;;;;;;;;;;;13.50;99.00;13.90;99861.00;;;;340128;28;97568;-91
2023/05/03 01:00:47;;;;;;;;;;;13.50;99.00;13.80;99861.00;;;;340990;28;83471;-91
2023/05/03 01:00:59;;;;;;;;;;;13.50;99.10;13.70;99868.00;;;;339940;28;97506;-90
2023/05/03 01:01:11;;;;;;;;;;;13.50;99.10;13.60;99850.00;;;;342147;28;83467;-90
2023/05/03 01:01:24;;;;;;;;;;;13.50;99.10;13.60;99862.00;;;;342632;28;95835;-88
2023/05/03 01:01:35;;;;;;;;;;;13.50;99.10;13.60;99858.00;;;;342048;28;83486;-89